createdAt,value
2018-12-21T00:01:06.541Z,40.70
2018-12-21T00:03:08.743Z,38.38
2018-12-21T00:05:11.023Z,41.15
2018-12-21T00:07:13.261Z,40.08
2018-12-21T00:09:16.756Z,41.23
2018-12-21T00:11:18.944Z,40.55
2018-12-21T00:13:21.047Z,39.13
2018-12-21T00:15:23.118Z,42.43
2018-12-21T00:17:25.310Z,38.17
2018-12-21T00:19:27.436Z,39.38
2018-12-21T00:21:29.507Z,44.53
2018-12-21T00:23:31.589Z,37.75
2018-12-21T00:25:33.919Z,44.42
2018-12-21T00:27:35.996Z,40.48
2018-12-21T00:29:38.180Z,40.50
2018-12-21T00:31:46.020Z,42.85
2018-12-21T00:33:54.044Z,40.45
2018-12-21T00:36:01.998Z,34.90
2018-12-21T00:38:09.893Z,38.70
2018-12-21T00:40:18.147Z,40.38
2018-12-21T00:42:27.719Z,40.98
2018-12-21T00:44:34.503Z,40.33
2018-12-21T00:46:40.119Z,37.23
2018-12-21T00:48:42.228Z,41.42
2018-12-21T00:50:44.380Z,38.92
2018-12-21T00:52:46.499Z,43.52
2018-12-21T00:54:48.703Z,40.88
2018-12-21T00:56:51.045Z,44.40
2018-12-21T00:58:53.257Z,42.40
2018-12-21T01:00:55.336Z,41.95
2018-12-21T01:02:57.521Z,40.17
2018-12-21T01:04:59.596Z,37.80
2018-12-21T01:07:01.681Z,40.50
2018-12-21T01:09:05.305Z,36.58
2018-12-21T01:11:07.412Z,41.37
2018-12-21T01:13:11.876Z,37.95
2018-12-21T01:15:13.976Z,37.67
2018-12-21T01:17:16.165Z,38.60
2018-12-21T01:19:18.343Z,38.60
2018-12-21T01:21:20.621Z,38.75
2018-12-21T01:23:22.730Z,45.43
2018-12-21T01:25:24.922Z,41.77
2018-12-21T01:27:26.999Z,39.92
2018-12-21T01:29:29.168Z,41.00
2018-12-21T01:31:31.405Z,40.55
2018-12-21T01:33:33.600Z,45.17
2018-12-21T01:35:35.802Z,40.28
2018-12-21T01:37:38.185Z,39.03
2018-12-21T01:39:40.476Z,38.40
2018-12-21T01:41:42.542Z,38.87
2018-12-21T01:43:44.709Z,50.10
2018-12-21T01:45:47.020Z,40.98
2018-12-21T01:47:49.196Z,42.23
2018-12-21T01:49:51.269Z,41.25
2018-12-21T01:51:53.579Z,40.30
2018-12-21T01:53:55.648Z,37.40
2018-12-21T01:55:57.718Z,40.38
2018-12-21T01:57:59.806Z,41.60
2018-12-21T02:00:02.249Z,40.53
2018-12-21T02:02:04.427Z,42.73
2018-12-21T02:04:06.878Z,36.93
2018-12-21T02:06:09.189Z,43.83
2018-12-21T02:08:11.408Z,44.03
2018-12-21T02:10:13.543Z,38.50
2018-12-21T02:12:15.736Z,35.27
2018-12-21T02:14:17.805Z,38.00
2018-12-21T02:16:19.881Z,35.53
2018-12-21T02:18:21.947Z,36.60
2018-12-21T02:20:24.045Z,34.40
2018-12-21T02:22:26.609Z,37.05
2018-12-21T02:24:28.692Z,37.00
2018-12-21T02:26:30.879Z,36.65
2018-12-21T02:28:33.071Z,37.28
2018-12-21T02:30:35.152Z,35.80
2018-12-21T02:32:37.240Z,39.03
2018-12-21T02:34:39.414Z,37.60
2018-12-21T02:36:41.480Z,38.00
2018-12-21T02:38:43.579Z,39.25
2018-12-21T02:40:46.447Z,42.62
2018-12-21T02:42:48.757Z,37.17
2018-12-21T02:44:50.938Z,38.10
2018-12-21T02:46:53.083Z,40.83
2018-12-21T02:48:55.199Z,45.48
2018-12-21T02:50:57.280Z,36.23
2018-12-21T02:52:59.629Z,36.23
2018-12-21T02:55:01.852Z,40.23
2018-12-21T02:57:04.148Z,39.45
2018-12-21T02:59:06.462Z,38.55
2018-12-21T03:01:08.655Z,35.60
2018-12-21T03:03:10.940Z,38.53
2018-12-21T03:05:13.289Z,36.65
2018-12-21T03:07:15.364Z,36.58
2018-12-21T03:09:17.453Z,39.05
2018-12-21T03:11:19.640Z,37.90
2018-12-21T03:13:21.770Z,39.60
2018-12-21T03:15:23.960Z,40.73
2018-12-21T03:17:26.061Z,45.63
2018-12-21T03:19:28.163Z,37.28
2018-12-21T03:21:30.455Z,37.45
2018-12-21T03:23:32.528Z,38.92
2018-12-21T03:25:34.724Z,35.38
2018-12-21T03:27:36.815Z,39.00
2018-12-21T03:29:38.996Z,39.85
2018-12-21T03:31:41.174Z,39.42
2018-12-21T03:33:43.377Z,32.80
2018-12-21T03:35:45.451Z,39.08
2018-12-21T03:37:47.532Z,33.60
2018-12-21T03:39:49.617Z,37.45
2018-12-21T03:41:51.893Z,42.40
2018-12-21T03:43:53.986Z,40.45
2018-12-21T03:45:56.065Z,35.20
2018-12-21T03:47:58.783Z,35.52
2018-12-21T03:50:00.989Z,37.95
2018-12-21T03:52:03.635Z,31.62
2018-12-21T03:54:05.864Z,35.75
2018-12-21T03:56:08.104Z,32.30
2018-12-21T03:58:10.307Z,33.28
2018-12-21T04:00:12.574Z,32.93
2018-12-21T04:02:14.845Z,32.65
2018-12-21T04:04:16.911Z,38.50
2018-12-21T04:06:18.983Z,30.10
2018-12-21T04:08:21.174Z,32.10
2018-12-21T04:10:23.477Z,31.85
2018-12-21T04:12:25.569Z,31.97
2018-12-21T04:14:27.785Z,30.17
2018-12-21T04:16:29.980Z,29.07
2018-12-21T04:18:32.049Z,28.50
2018-12-21T04:20:34.225Z,33.65
2018-12-21T04:22:36.401Z,32.63
2018-12-21T04:24:38.476Z,26.23
2018-12-21T04:26:40.717Z,28.90
2018-12-21T04:28:42.832Z,30.92
2018-12-21T04:30:45.004Z,27.90
2018-12-21T04:32:47.290Z,28.62
2018-12-21T04:34:49.361Z,28.30
2018-12-21T04:36:51.521Z,31.30
2018-12-21T04:38:54.071Z,28.47
2018-12-21T04:40:56.385Z,32.70
2018-12-21T04:42:58.769Z,29.27
2018-12-21T04:45:00.872Z,26.77
2018-12-21T04:47:03.159Z,32.58
2018-12-21T04:49:05.345Z,25.37
2018-12-21T04:51:07.662Z,25.08
2018-12-21T04:53:09.791Z,26.60
2018-12-21T04:55:11.981Z,23.45
2018-12-21T04:57:14.265Z,32.20
2018-12-21T04:59:16.325Z,26.87
2018-12-21T05:01:18.424Z,26.77
2018-12-21T05:03:20.491Z,23.22
2018-12-21T05:05:22.680Z,20.72
2018-12-21T05:07:24.796Z,25.50
2018-12-21T05:09:26.978Z,25.75
2018-12-21T05:11:29.257Z,28.10
2018-12-21T05:13:31.445Z,26.42
2018-12-21T05:15:33.663Z,25.37
2018-12-21T05:17:35.725Z,25.00
2018-12-21T05:19:37.847Z,25.17
2018-12-21T05:21:40.133Z,26.25
2018-12-21T05:23:42.316Z,25.60
2018-12-21T05:25:44.429Z,24.20
2018-12-21T05:27:46.528Z,20.12
2018-12-21T05:29:48.715Z,19.55
2018-12-21T05:31:50.852Z,17.92
2018-12-21T05:33:53.073Z,20.80
2018-12-21T05:35:55.404Z,23.92
2018-12-21T05:37:57.517Z,21.17
2018-12-21T05:39:59.631Z,22.77
2018-12-21T05:42:01.784Z,22.30
2018-12-21T05:44:04.138Z,19.48
2018-12-21T05:46:06.243Z,25.40
2018-12-21T05:48:08.359Z,24.12
2018-12-21T05:50:10.491Z,18.77
2018-12-21T05:52:12.592Z,22.80
2018-12-21T05:54:14.710Z,23.02
2018-12-21T05:56:17.144Z,19.98
2018-12-21T05:58:19.271Z,20.80
2018-12-21T06:00:21.514Z,18.12
2018-12-21T06:02:23.736Z,20.92
2018-12-21T06:04:25.971Z,20.92
2018-12-21T06:06:28.201Z,21.75
2018-12-21T06:08:30.332Z,20.02
2018-12-21T06:10:32.558Z,19.57
2018-12-21T06:12:34.668Z,23.12
2018-12-21T06:14:36.880Z,18.62
2018-12-21T06:16:39.037Z,19.55
2018-12-21T06:18:41.144Z,20.45
2018-12-21T06:20:43.581Z,19.07
2018-12-21T06:22:45.696Z,21.87
2018-12-21T06:24:47.805Z,20.15
2018-12-21T06:26:50.031Z,17.82
2018-12-21T06:28:52.251Z,20.55
2018-12-21T06:30:54.383Z,22.98
2018-12-21T06:32:56.500Z,23.40
2018-12-21T06:34:58.635Z,18.62
2018-12-21T06:37:00.847Z,23.30
2018-12-21T06:39:05.119Z,24.00
2018-12-21T06:41:07.233Z,24.87
2018-12-21T06:43:09.357Z,18.30
2018-12-21T06:45:11.621Z,17.90
2018-12-21T06:47:13.853Z,18.95
2018-12-21T06:49:15.971Z,19.95
2018-12-21T06:51:18.328Z,21.62
2018-12-21T06:53:20.451Z,21.33
2018-12-21T06:55:22.703Z,20.17
2018-12-21T06:57:25.150Z,25.23
2018-12-21T06:59:27.276Z,19.92
2018-12-21T07:01:29.388Z,17.57
2018-12-21T07:03:31.698Z,17.07
2018-12-21T07:05:33.825Z,19.07
2018-12-21T07:07:35.944Z,25.88
2018-12-21T07:09:38.113Z,17.95
2018-12-21T07:11:40.308Z,26.00
2018-12-21T07:13:42.449Z,20.97
2018-12-21T07:15:44.692Z,22.27
2018-12-21T07:17:46.829Z,23.40
2018-12-21T07:19:48.947Z,16.57
2018-12-21T07:21:51.088Z,16.60
2018-12-21T07:23:53.225Z,20.27
2018-12-21T07:25:55.456Z,16.00
2018-12-21T07:27:57.678Z,15.03
2018-12-21T07:30:00.104Z,17.37
2018-12-21T07:32:02.338Z,18.00
2018-12-21T07:34:04.479Z,16.12
2018-12-21T07:36:08.470Z,23.02
2018-12-21T07:38:10.957Z,20.02
2018-12-21T07:40:13.179Z,17.15
2018-12-21T07:42:15.315Z,16.40
2018-12-21T07:44:17.444Z,17.20
2018-12-21T07:46:19.564Z,18.07
2018-12-21T07:48:22.115Z,15.78
2018-12-21T07:50:24.349Z,14.00
2018-12-21T07:52:26.496Z,17.82
2018-12-21T07:54:28.808Z,17.12
2018-12-21T07:56:30.941Z,15.45
2018-12-21T07:58:33.267Z,15.38
2018-12-21T08:00:35.559Z,17.42
2018-12-21T08:02:37.681Z,15.65
2018-12-21T08:04:39.905Z,18.65
2018-12-21T08:06:42.023Z,18.00
2018-12-21T08:08:44.164Z,20.85
2018-12-21T08:10:46.307Z,13.80
2018-12-21T08:12:48.531Z,17.42
2018-12-21T08:14:50.649Z,17.73
2018-12-21T08:16:52.771Z,17.20
2018-12-21T08:18:55.070Z,17.07
2018-12-21T08:20:57.307Z,19.23
2018-12-21T08:22:59.429Z,16.93
2018-12-21T08:25:01.641Z,13.10
2018-12-21T08:27:03.751Z,17.42
2018-12-21T08:29:05.907Z,15.45
2018-12-21T08:31:08.058Z,14.35
2018-12-21T08:33:10.184Z,16.80
2018-12-21T08:35:12.334Z,14.80
2018-12-21T08:37:14.581Z,16.17
2018-12-21T08:39:16.875Z,15.85
2018-12-21T08:41:19.109Z,21.85
2018-12-21T08:43:21.285Z,15.48
2018-12-21T08:45:23.446Z,17.27
2018-12-21T08:47:25.788Z,19.98
2018-12-21T08:49:27.954Z,14.43
2018-12-21T08:51:30.463Z,16.32
2018-12-21T08:53:32.655Z,16.15
2018-12-21T08:55:34.775Z,14.63
2018-12-21T08:57:37.344Z,17.17
2018-12-21T08:59:39.456Z,14.60
2018-12-21T09:01:41.677Z,13.40
2018-12-21T09:03:44.156Z,11.53
2018-12-21T09:05:46.376Z,13.13
2018-12-21T09:07:48.508Z,15.53
2018-12-21T09:09:50.648Z,11.95
2018-12-21T09:11:52.920Z,12.50
2018-12-21T09:13:55.046Z,11.93
2018-12-21T09:15:57.907Z,11.70
2018-12-21T09:18:00.045Z,12.18
2018-12-21T09:20:02.273Z,10.98
2018-12-21T09:22:04.520Z,9.18
2018-12-21T09:24:06.651Z,14.87
2018-12-21T09:26:08.773Z,13.68
2018-12-21T09:28:11.198Z,13.38
2018-12-21T09:30:13.535Z,9.38
2018-12-21T09:32:15.669Z,10.53
2018-12-21T09:34:17.923Z,12.82
2018-12-21T09:36:20.221Z,9.45
2018-12-21T09:38:22.360Z,12.68
2018-12-21T09:40:24.751Z,13.15
2018-12-21T09:42:26.909Z,13.60
2018-12-21T09:44:29.126Z,9.85
2018-12-21T09:46:31.345Z,9.33
2018-12-21T09:48:33.488Z,9.35
2018-12-21T09:50:35.704Z,9.78
2018-12-21T09:52:37.849Z,11.28
2018-12-21T09:54:40.096Z,9.95
2018-12-21T09:56:42.269Z,10.13
2018-12-21T09:58:44.404Z,13.90
2018-12-21T10:00:46.516Z,10.23
2018-12-21T10:02:48.627Z,11.20
2018-12-21T10:04:50.749Z,9.05
2018-12-21T10:06:52.874Z,9.85
2018-12-21T10:08:54.996Z,10.20
2018-12-21T10:10:57.243Z,12.73
2018-12-21T10:12:59.415Z,15.48
2018-12-21T10:15:01.710Z,11.70
2018-12-21T10:17:03.947Z,9.28
2018-12-21T10:19:06.167Z,11.63
2018-12-21T10:21:08.422Z,11.08
2018-12-21T10:23:10.632Z,14.35
2018-12-21T10:25:12.758Z,9.85
2018-12-21T10:27:14.999Z,9.15
2018-12-21T10:29:17.260Z,15.70
2018-12-21T10:31:19.478Z,13.65
2018-12-21T10:33:22.387Z,13.48
2018-12-21T10:35:24.556Z,13.95
2018-12-21T10:37:26.686Z,15.25
2018-12-21T10:39:29.075Z,10.28
2018-12-21T10:41:31.657Z,10.38
2018-12-21T10:43:34.327Z,11.60
2018-12-21T10:45:41.625Z,14.38
2018-12-21T10:47:40.556Z,11.65
2018-12-21T10:49:42.667Z,10.75
2018-12-21T10:51:44.796Z,10.43
2018-12-21T10:53:46.962Z,11.83
2018-12-21T10:55:49.096Z,16.15
2018-12-21T10:57:51.217Z,9.13
2018-12-21T10:59:53.356Z,10.80
2018-12-21T11:01:55.463Z,16.85
2018-12-21T11:03:57.799Z,13.83
2018-12-21T11:06:00.061Z,11.60
2018-12-21T11:08:02.177Z,12.75
2018-12-21T11:10:06.325Z,11.95
2018-12-21T11:12:08.492Z,15.95
2018-12-21T11:14:10.640Z,15.90
2018-12-21T11:16:12.806Z,11.78
2018-12-21T11:18:14.962Z,12.60
2018-12-21T11:20:17.096Z,11.80
2018-12-21T11:22:19.251Z,14.83
2018-12-21T11:24:21.508Z,11.12
2018-12-21T11:26:23.681Z,14.07
2018-12-21T11:28:25.976Z,11.93
2018-12-21T11:30:28.266Z,8.53
2018-12-21T11:32:30.448Z,13.22
2018-12-21T11:34:32.894Z,12.43
2018-12-21T11:36:35.139Z,10.48
2018-12-21T11:38:37.253Z,12.37
2018-12-21T11:40:39.571Z,11.80
2018-12-21T11:42:41.689Z,13.08
2018-12-21T11:44:43.879Z,10.70
2018-12-21T11:46:46.035Z,10.40
2018-12-21T11:48:48.272Z,9.35
2018-12-21T11:50:50.390Z,12.68
2018-12-21T11:52:52.519Z,10.25
2018-12-21T11:54:54.889Z,8.48
2018-12-21T11:56:57.081Z,11.28
2018-12-21T11:58:59.360Z,10.82
2018-12-21T12:01:01.580Z,8.83
2018-12-21T12:03:03.857Z,10.45
2018-12-21T12:05:06.040Z,11.33
2018-12-21T12:07:08.172Z,12.03
2018-12-21T12:09:10.499Z,12.43
2018-12-21T12:11:12.645Z,13.68
2018-12-21T12:13:14.976Z,11.05
2018-12-21T12:15:17.197Z,11.53
2018-12-21T12:17:19.319Z,8.28
2018-12-21T12:19:21.560Z,10.13
2018-12-21T12:21:23.837Z,8.78
2018-12-21T12:23:25.975Z,9.60
2018-12-21T12:25:28.216Z,7.40
2018-12-21T12:27:30.407Z,8.85
2018-12-21T12:29:32.745Z,9.43
2018-12-21T12:31:34.865Z,7.50
2018-12-21T12:33:37.012Z,8.05
2018-12-21T12:35:39.463Z,9.20
2018-12-21T12:37:41.610Z,9.00
2018-12-21T12:39:43.735Z,8.20
2018-12-21T12:41:45.993Z,9.13
2018-12-21T12:43:48.149Z,12.82
2018-12-21T12:45:50.276Z,7.55
2018-12-21T12:47:52.837Z,11.75
2018-12-21T12:49:54.996Z,10.00
2018-12-21T12:51:57.163Z,14.13
2018-12-21T12:53:59.425Z,11.80
2018-12-21T12:56:01.676Z,15.95
2018-12-21T12:58:03.804Z,12.43
2018-12-21T13:00:07.628Z,11.35
2018-12-21T13:02:09.749Z,10.80
2018-12-21T13:04:11.865Z,17.92
2018-12-21T13:06:14.083Z,14.53
2018-12-21T13:08:18.991Z,11.38
2018-12-21T13:10:21.215Z,10.93
2018-12-21T13:12:23.351Z,12.23
2018-12-21T13:14:25.475Z,12.00
2018-12-21T13:16:27.627Z,10.48
2018-12-21T13:18:29.757Z,11.25
2018-12-21T13:20:32.080Z,8.80
2018-12-21T13:22:34.323Z,10.30
2018-12-21T13:24:36.572Z,12.18
2018-12-21T13:26:38.739Z,10.38
2018-12-21T13:28:40.997Z,7.95
2018-12-21T13:30:43.227Z,8.55
2018-12-21T13:32:45.338Z,11.18
2018-12-21T13:34:47.500Z,10.35
2018-12-21T13:36:49.644Z,7.30
2018-12-21T13:38:51.978Z,9.20
2018-12-21T13:40:54.089Z,6.20
2018-12-21T13:42:56.340Z,6.20
2018-12-21T13:44:58.443Z,7.37
2018-12-21T13:47:00.567Z,7.33
2018-12-21T13:49:02.710Z,8.18
2018-12-21T13:51:04.823Z,5.78
2018-12-21T13:53:06.934Z,9.98
2018-12-21T13:55:09.068Z,8.95
2018-12-21T13:57:11.173Z,5.37
2018-12-21T13:59:13.303Z,7.25
2018-12-21T14:01:15.443Z,5.50
2018-12-21T14:03:17.676Z,5.78
2018-12-21T14:05:19.783Z,8.15
2018-12-21T14:07:21.912Z,6.87
2018-12-21T14:09:24.028Z,5.95
2018-12-21T14:11:26.252Z,5.62
2018-12-21T14:13:28.392Z,6.15
2018-12-21T14:15:30.511Z,7.80
2018-12-21T14:17:32.643Z,7.08
2018-12-21T14:19:34.766Z,7.10
2018-12-21T14:21:37.011Z,5.97
2018-12-21T14:23:39.805Z,6.90
2018-12-21T14:25:42.158Z,6.92
2018-12-21T14:27:44.304Z,5.90
2018-12-21T14:29:46.424Z,6.95
2018-12-21T14:31:48.707Z,6.60
2018-12-21T14:33:50.836Z,7.62
2018-12-21T14:35:52.960Z,7.45
2018-12-21T14:37:55.199Z,6.45
2018-12-21T14:39:57.318Z,8.45
2018-12-21T14:41:59.435Z,7.83
2018-12-21T14:44:01.995Z,8.73
2018-12-21T14:46:04.119Z,8.65
2018-12-21T14:48:06.346Z,6.87
2018-12-21T14:50:09.527Z,7.83
2018-12-21T14:52:11.640Z,10.05
2018-12-21T14:54:13.747Z,9.65
2018-12-21T14:56:15.877Z,7.00
2018-12-21T14:58:18.019Z,8.43
2018-12-21T15:00:20.231Z,7.87
2018-12-21T15:46:13.603Z,7.65
2018-12-21T15:48:15.845Z,9.78
2018-12-21T15:50:28.324Z,8.18
2018-12-21T15:52:32.327Z,10.53
2018-12-21T15:54:34.895Z,10.70
2018-12-21T15:56:37.453Z,12.25
2018-12-21T15:58:39.798Z,8.08
2018-12-21T16:00:42.037Z,10.10
2018-12-21T16:02:45.888Z,8.05
2018-12-21T16:04:48.328Z,9.63
2018-12-21T16:06:50.627Z,9.50
2018-12-21T16:08:52.756Z,10.18
2018-12-21T16:10:55.463Z,8.93
2018-12-21T16:12:57.605Z,8.35
2018-12-21T16:14:59.752Z,8.85
2018-12-21T16:17:04.008Z,8.58
2018-12-21T16:19:06.787Z,9.93
2018-12-21T16:21:08.933Z,8.93
2018-12-21T16:23:11.091Z,9.35
2018-12-21T16:25:13.212Z,8.85
2018-12-21T16:27:15.387Z,9.98
2018-12-21T16:29:17.668Z,8.35
2018-12-21T16:31:20.035Z,7.53
2018-12-21T16:33:22.236Z,10.00
2018-12-21T16:35:24.892Z,10.00
2018-12-21T16:37:27.040Z,8.58
2018-12-21T16:39:29.173Z,7.85
2018-12-21T16:41:31.318Z,10.93
2018-12-21T16:43:35.998Z,11.10
2018-12-21T16:45:38.215Z,7.28
2018-12-21T16:47:40.367Z,9.28
2018-12-21T16:49:42.502Z,12.35
2018-12-21T16:51:44.773Z,10.03
2018-12-21T16:53:46.936Z,10.70
2018-12-21T16:55:49.051Z,10.93
2018-12-21T16:57:51.175Z,13.03
2018-12-21T16:59:53.412Z,12.33
2018-12-21T17:01:55.556Z,16.25
2018-12-21T17:03:57.692Z,15.77
2018-12-21T17:06:00.354Z,15.77
2018-12-21T17:08:02.583Z,19.92
2018-12-21T17:10:07.030Z,20.50
2018-12-21T17:12:09.193Z,18.87
2018-12-21T17:14:11.345Z,17.10
2018-12-21T17:16:13.505Z,20.07
2018-12-21T17:18:15.837Z,20.27
2018-12-21T17:20:17.981Z,17.47
2018-12-21T17:22:20.214Z,22.13
2018-12-21T17:24:22.997Z,20.90
2018-12-21T17:26:25.148Z,25.80
2018-12-21T17:28:27.296Z,24.67
2018-12-21T17:30:29.439Z,25.70
2018-12-21T17:32:31.580Z,20.67
2018-12-21T17:34:33.700Z,22.90
2018-12-21T17:36:35.992Z,21.67
2018-12-21T17:38:38.629Z,22.00
2018-12-21T17:40:40.896Z,22.57
2018-12-21T17:42:43.268Z,32.37
2018-12-21T17:44:45.384Z,25.63
2018-12-21T17:46:47.496Z,25.20
2018-12-21T17:48:49.735Z,30.90
2018-12-21T17:50:54.774Z,24.87
2018-12-21T18:06:44.591Z,20.60
2018-12-21T19:14:29.020Z,6.20
2018-12-21T19:16:31.254Z,11.87
2018-12-21T19:18:33.365Z,11.33
2018-12-21T19:20:35.520Z,10.83
2018-12-21T19:22:37.639Z,13.23
2018-12-21T19:24:39.864Z,6.80
2018-12-21T19:26:42.099Z,8.53
2018-12-21T19:28:44.217Z,13.40
2018-12-21T19:30:46.436Z,16.90
2018-12-21T19:32:48.593Z,14.43
2018-12-21T19:34:50.748Z,15.80
2018-12-21T19:36:52.963Z,10.23
2018-12-21T19:38:55.963Z,10.50
2018-12-21T19:40:58.192Z,13.77
2018-12-21T19:43:00.296Z,8.33
2018-12-21T19:45:02.557Z,15.27
2018-12-21T19:47:05.536Z,9.90
2018-12-21T19:49:07.651Z,6.37
2018-12-21T19:51:09.895Z,13.40
2018-12-21T19:53:12.037Z,12.70
2018-12-21T19:55:20.015Z,6.73
2018-12-21T19:57:22.575Z,8.10
2018-12-21T19:59:25.030Z,6.87
2018-12-21T20:01:28.378Z,13.60
2018-12-21T20:03:31.074Z,11.20
2018-12-21T20:05:33.575Z,14.00
2018-12-21T20:07:35.903Z,9.30
2018-12-21T20:09:38.218Z,17.13
2018-12-21T20:11:40.562Z,6.77
2018-12-21T20:13:43.002Z,6.03
2018-12-21T20:15:47.364Z,12.63
2018-12-21T20:17:49.963Z,7.57
2018-12-21T20:19:52.201Z,8.10
2018-12-21T20:21:54.461Z,10.80
2018-12-21T20:23:57.420Z,11.13
2018-12-21T20:25:59.752Z,3.93
2018-12-21T20:28:02.319Z,7.77
2018-12-21T20:30:05.807Z,7.50
2018-12-21T20:32:08.845Z,5.13
2018-12-21T20:34:11.215Z,6.13
2018-12-21T20:36:13.819Z,4.33
2018-12-21T20:38:21.435Z,4.20
2018-12-21T20:40:23.016Z,6.20
2018-12-21T20:42:25.161Z,4.30
2018-12-21T20:44:27.275Z,5.73
2018-12-21T20:46:29.401Z,5.90
2018-12-21T20:48:31.603Z,5.83
2018-12-21T20:50:33.835Z,6.97
2018-12-21T20:52:35.990Z,6.07
2018-12-21T20:54:38.168Z,6.20
2018-12-21T20:56:41.967Z,5.97
2018-12-21T20:58:47.408Z,4.97
2018-12-21T21:00:49.576Z,7.60
2018-12-21T21:02:52.023Z,5.33
2018-12-21T21:04:54.147Z,5.40
2018-12-21T21:06:56.553Z,5.40
2018-12-21T21:08:58.648Z,4.27
2018-12-21T21:11:00.808Z,8.23
2018-12-21T21:13:03.035Z,6.60
2018-12-21T21:15:06.047Z,8.70
2018-12-21T21:17:08.137Z,7.50
2018-12-21T21:19:10.896Z,10.23
2018-12-21T21:21:13.018Z,10.87
2018-12-21T21:23:15.319Z,12.10
2018-12-21T21:30:13.622Z,12.40
2018-12-21T21:32:15.866Z,10.10
2018-12-21T21:34:18.031Z,11.60
2018-12-21T21:36:20.191Z,14.30
2018-12-21T21:38:22.572Z,12.40
2018-12-21T21:40:24.730Z,15.03
2018-12-21T21:42:26.927Z,14.47
2018-12-21T21:44:29.101Z,17.77
2018-12-21T21:46:32.080Z,14.77
2018-12-21T21:48:34.432Z,10.08
2018-12-21T21:50:36.710Z,17.10
2018-12-21T21:52:38.975Z,14.70
2018-12-21T21:54:42.254Z,11.43
2018-12-21T21:56:44.559Z,11.00
2018-12-21T21:58:46.986Z,10.80
2018-12-21T22:00:49.132Z,14.13
2018-12-21T22:02:51.272Z,13.70
2018-12-21T22:04:53.510Z,9.30
2018-12-21T22:06:56.498Z,14.90
2018-12-21T22:08:58.649Z,9.97
2018-12-21T22:11:01.983Z,8.73
2018-12-21T22:13:06.377Z,9.28
2018-12-21T22:15:10.309Z,9.70
2018-12-21T22:17:12.409Z,14.90
2018-12-21T22:19:14.619Z,15.10
2018-12-21T22:21:16.786Z,16.47
2018-12-21T22:23:19.301Z,14.87
2018-12-21T22:25:21.413Z,15.83
2018-12-21T22:27:23.965Z,14.35
2018-12-21T22:29:26.038Z,15.00
2018-12-21T22:31:28.120Z,14.77
2018-12-21T22:33:32.422Z,20.47
2018-12-21T22:35:34.624Z,13.32
2018-12-21T22:37:36.716Z,16.25
2018-12-21T22:39:38.925Z,12.80
2018-12-21T22:41:41.012Z,8.30
2018-12-21T22:43:43.176Z,10.13
2018-12-21T22:45:45.332Z,9.08
2018-12-21T22:47:47.545Z,6.60
2018-12-21T22:49:49.636Z,9.95
2018-12-21T22:51:51.868Z,11.27
2018-12-21T22:53:54.761Z,10.27
2018-12-21T23:08:47.051Z,5.50
2018-12-21T23:10:49.128Z,6.75
2018-12-21T23:12:51.924Z,6.20
2018-12-21T23:14:54.091Z,8.40
2018-12-21T23:16:56.299Z,6.20
2018-12-21T23:18:58.847Z,6.97
2018-12-21T23:21:00.957Z,13.32
2018-12-21T23:23:03.140Z,16.40
2018-12-21T23:25:06.212Z,7.03
2018-12-21T23:27:08.295Z,11.20
2018-12-21T23:29:10.575Z,5.97
2018-12-21T23:31:12.684Z,4.90
2018-12-21T23:33:14.749Z,6.80
2018-12-21T23:35:16.880Z,5.28
2018-12-21T23:37:19.559Z,9.77
2018-12-21T23:39:21.787Z,5.87
2018-12-21T23:41:23.863Z,6.20
2018-12-21T23:43:25.978Z,4.23
2018-12-21T23:45:28.167Z,5.70
2018-12-21T23:47:30.269Z,7.53
2018-12-21T23:49:32.392Z,9.80
2018-12-21T23:51:35.021Z,10.53
2018-12-21T23:53:37.209Z,7.90
2018-12-21T23:55:39.296Z,8.43
2018-12-21T23:57:41.393Z,8.50
2018-12-21T23:59:43.474Z,7.17
